sensor_id;sensor_type;location;lat;lon;timestamp;temperature;humidity
11583;DHT22;34299;50.820;4.548;2023-11-21T00:01:13;8.50;99.90
11583;DHT22;34299;50.820;4.548;2023-11-21T00:03:39;8.50;99.90
11583;DHT22;34299;50.820;4.548;2023-11-21T00:06:06;8.40;99.90
11583;DHT22;34299;50.820;4.548;2023-11-21T00:08:35;8.40;99.90
11583;DHT22;34299;50.820;4.548;2023-11-21T00:11:02;8.40;99.90
11583;DHT22;34299;50.820;4.548;2023-11-21T00:13:30;8.30;99.90
11583;DHT22;34299;50.820;4.548;2023-11-21T00:15:57;8.30;99.90
11583;DHT22;34299;50.820;4.548;2023-11-21T00:18:24;8.30;99.90
11583;DHT22;34299;50.820;4.548;2023-11-21T00:20:51;8.40;99.90
11583;DHT22;34299;50.820;4.548;2023-11-21T00:23:17;8.40;99.90
11583;DHT22;34299;50.820;4.548;2023-11-21T00:25:45;8.20;99.90
11583;DHT22;34299;50.820;4.548;2023-11-21T00:28:12;8.50;99.90
11583;DHT22;34299;50.820;4.548;2023-11-21T00:30:39;8.50;99.90
11583;DHT22;34299;50.820;4.548;2023-11-21T00:33:06;8.40;99.90
11583;DHT22;34299;50.820;4.548;2023-11-21T00:35:32;8.40;99.90
11583;DHT22;34299;50.820;4.548;2023-11-21T00:37:59;8.50;99.90
11583;DHT22;34299;50.820;4.548;2023-11-21T00:40:26;8.40;99.90
11583;DHT22;34299;50.820;4.548;2023-11-21T00:42:54;8.40;99.90
11583;DHT22;34299;50.820;4.548;2023-11-21T00:45:21;8.30;99.90
11583;DHT22;34299;50.820;4.548;2023-11-21T00:47:48;8.30;99.90
11583;DHT22;34299;50.820;4.548;2023-11-21T00:50:15;8.30;99.90
11583;DHT22;34299;50.820;4.548;2023-11-21T00:52:42;8.30;99.90
11583;DHT22;34299;50.820;4.548;2023-11-21T00:55:08;8.20;99.90
11583;DHT22;34299;50.820;4.548;2023-11-21T00:57:35;8.20;99.90
11583;DHT22;34299;50.820;4.548;2023-11-21T01:00:04;8.20;99.90
11583;DHT22;34299;50.820;4.548;2023-11-21T01:02:34;8.40;99.90
11583;DHT22;34299;50.820;4.548;2023-11-21T01:05:02;8.30;99.90
11583;DHT22;34299;50.820;4.548;2023-11-21T01:07:29;8.20;99.90
11583;DHT22;34299;50.820;4.548;2023-11-21T01:09:56;8.10;99.90
11583;DHT22;34299;50.820;4.548;2023-11-21T01:12:23;8.00;99.90
11583;DHT22;34299;50.820;4.548;2023-11-21T01:14:50;8.00;99.90
11583;DHT22;34299;50.820;4.548;2023-11-21T01:17:18;8.30;99.90
11583;DHT22;34299;50.820;4.548;2023-11-21T01:19:45;7.90;99.90
11583;DHT22;34299;50.820;4.548;2023-11-21T01:22:12;7.90;99.90
11583;DHT22;34299;50.820;4.548;2023-11-21T01:24:38;7.90;99.90
11583;DHT22;34299;50.820;4.548;2023-11-21T01:27:05;7.90;99.90
11583;DHT22;34299;50.820;4.548;2023-11-21T01:29:32;7.90;99.90
11583;DHT22;34299;50.820;4.548;2023-11-21T01:31:59;8.00;99.90
11583;DHT22;34299;50.820;4.548;2023-11-21T01:34:28;8.00;99.90
11583;DHT22;34299;50.820;4.548;2023-11-21T01:36:56;7.90;99.90
11583;DHT22;34299;50.820;4.548;2023-11-21T01:39:22;8.00;99.90
11583;DHT22;34299;50.820;4.548;2023-11-21T01:41:49;7.90;99.90
11583;DHT22;34299;50.820;4.548;2023-11-21T01:44:17;8.00;99.90
11583;DHT22;34299;50.820;4.548;2023-11-21T01:46:44;8.10;99.90
11583;DHT22;34299;50.820;4.548;2023-11-21T01:49:11;8.10;99.90
11583;DHT22;34299;50.820;4.548;2023-11-21T01:51:41;8.20;99.90
11583;DHT22;34299;50.820;4.548;2023-11-21T01:54:09;8.10;99.90
11583;DHT22;34299;50.820;4.548;2023-11-21T01:56:37;8.00;99.90
11583;DHT22;34299;50.820;4.548;2023-11-21T01:59:04;8.00;99.90
11583;DHT22;34299;50.820;4.548;2023-11-21T02:01:32;8.00;99.90
11583;DHT22;34299;50.820;4.548;2023-11-21T02:03:59;8.00;99.90
11583;DHT22;34299;50.820;4.548;2023-11-21T02:06:27;8.10;99.90
11583;DHT22;34299;50.820;4.548;2023-11-21T02:08:57;8.00;99.90
11583;DHT22;34299;50.820;4.548;2023-11-21T02:11:25;7.90;99.90
11583;DHT22;34299;50.820;4.548;2023-11-21T02:13:52;8.00;99.90
11583;DHT22;34299;50.820;4.548;2023-11-21T02:16:20;8.10;99.90
11583;DHT22;34299;50.820;4.548;2023-11-21T02:18:47;8.00;99.90
11583;DHT22;34299;50.820;4.548;2023-11-21T02:21:14;8.10;99.90
11583;DHT22;34299;50.820;4.548;2023-11-21T02:23:42;8.10;99.90
11583;DHT22;34299;50.820;4.548;2023-11-21T02:26:09;8.30;99.90
11583;DHT22;34299;50.820;4.548;2023-11-21T02:28:36;8.20;99.90
11583;DHT22;34299;50.820;4.548;2023-11-21T02:31:04;8.50;99.90
11583;DHT22;34299;50.820;4.548;2023-11-21T02:33:31;8.40;99.90
11583;DHT22;34299;50.820;4.548;2023-11-21T02:35:59;8.30;99.90
11583;DHT22;34299;50.820;4.548;2023-11-21T02:38:26;8.40;99.90
11583;DHT22;34299;50.820;4.548;2023-11-21T02:40:54;8.40;99.90
11583;DHT22;34299;50.820;4.548;2023-11-21T02:43:20;8.50;99.90
11583;DHT22;34299;50.820;4.548;2023-11-21T02:45:47;8.30;99.90
11583;DHT22;34299;50.820;4.548;2023-11-21T02:48:14;8.30;99.90
11583;DHT22;34299;50.820;4.548;2023-11-21T02:50:41;8.40;99.90
11583;DHT22;34299;50.820;4.548;2023-11-21T02:53:08;8.20;99.90
11583;DHT22;34299;50.820;4.548;2023-11-21T02:55:36;8.40;99.90
11583;DHT22;34299;50.820;4.548;2023-11-21T02:58:04;8.40;99.90
11583;DHT22;34299;50.820;4.548;2023-11-21T03:00:31;8.50;99.90
11583;DHT22;34299;50.820;4.548;2023-11-21T03:02:58;8.60;99.90
11583;DHT22;34299;50.820;4.548;2023-11-21T03:05:25;8.40;99.90
11583;DHT22;34299;50.820;4.548;2023-11-21T03:07:54;8.30;99.90
11583;DHT22;34299;50.820;4.548;2023-11-21T03:10:20;8.30;99.90
11583;DHT22;34299;50.820;4.548;2023-11-21T03:12:48;8.20;99.90
11583;DHT22;34299;50.820;4.548;2023-11-21T03:15:18;8.10;99.90
11583;DHT22;34299;50.820;4.548;2023-11-21T03:17:45;8.30;99.90
11583;DHT22;34299;50.820;4.548;2023-11-21T03:20:14;8.30;99.90
11583;DHT22;34299;50.820;4.548;2023-11-21T03:22:41;8.30;99.90
11583;DHT22;34299;50.820;4.548;2023-11-21T03:25:08;8.20;99.90
11583;DHT22;34299;50.820;4.548;2023-11-21T03:27:36;8.50;99.90
11583;DHT22;34299;50.820;4.548;2023-11-21T03:30:04;8.30;99.90
11583;DHT22;34299;50.820;4.548;2023-11-21T03:32:34;8.40;99.90
11583;DHT22;34299;50.820;4.548;2023-11-21T03:35:01;8.30;99.90
11583;DHT22;34299;50.820;4.548;2023-11-21T03:37:29;8.30;99.90
11583;DHT22;34299;50.820;4.548;2023-11-21T03:39:55;8.20;99.90
11583;DHT22;34299;50.820;4.548;2023-11-21T03:42:22;8.40;99.90
11583;DHT22;34299;50.820;4.548;2023-11-21T03:44:50;8.30;99.90
11583;DHT22;34299;50.820;4.548;2023-11-21T03:47:17;8.30;99.90
11583;DHT22;34299;50.820;4.548;2023-11-21T03:49:46;8.20;99.90
11583;DHT22;34299;50.820;4.548;2023-11-21T03:52:12;8.30;99.90
11583;DHT22;34299;50.820;4.548;2023-11-21T03:54:38;8.20;99.90
11583;DHT22;34299;50.820;4.548;2023-11-21T03:57:05;8.20;99.90
11583;DHT22;34299;50.820;4.548;2023-11-21T03:59:31;8.20;99.90
11583;DHT22;34299;50.820;4.548;2023-11-21T04:01:58;8.20;99.90
11583;DHT22;34299;50.820;4.548;2023-11-21T04:04:25;8.20;99.90
11583;DHT22;34299;50.820;4.548;2023-11-21T04:06:53;8.50;99.90
11583;DHT22;34299;50.820;4.548;2023-11-21T04:09:20;8.50;99.90
11583;DHT22;34299;50.820;4.548;2023-11-21T04:11:50;8.40;99.90
11583;DHT22;34299;50.820;4.548;2023-11-21T04:14:17;8.30;99.90
11583;DHT22;34299;50.820;4.548;2023-11-21T04:16:43;8.50;99.90
11583;DHT22;34299;50.820;4.548;2023-11-21T04:19:10;8.40;99.90
11583;DHT22;34299;50.820;4.548;2023-11-21T04:21:39;8.40;99.90
11583;DHT22;34299;50.820;4.548;2023-11-21T04:24:08;8.60;99.90
11583;DHT22;34299;50.820;4.548;2023-11-21T04:26:34;8.60;99.90
11583;DHT22;34299;50.820;4.548;2023-11-21T04:29:01;8.50;99.90
11583;DHT22;34299;50.820;4.548;2023-11-21T04:31:28;8.40;99.90
11583;DHT22;34299;50.820;4.548;2023-11-21T04:33:55;8.50;99.90
11583;DHT22;34299;50.820;4.548;2023-11-21T04:36:21;8.60;99.90
11583;DHT22;34299;50.820;4.548;2023-11-21T04:38:48;8.70;99.90
11583;DHT22;34299;50.820;4.548;2023-11-21T04:41:16;8.50;99.90
11583;DHT22;34299;50.820;4.548;2023-11-21T04:43:43;8.60;99.90
11583;DHT22;34299;50.820;4.548;2023-11-21T04:46:10;8.80;99.90
11583;DHT22;34299;50.820;4.548;2023-11-21T04:48:36;8.80;99.90
11583;DHT22;34299;50.820;4.548;2023-11-21T04:51:03;8.90;99.90
11583;DHT22;34299;50.820;4.548;2023-11-21T04:53:30;8.70;99.90
11583;DHT22;34299;50.820;4.548;2023-11-21T04:55:57;9.00;99.90
11583;DHT22;34299;50.820;4.548;2023-11-21T04:58:25;8.80;99.90
11583;DHT22;34299;50.820;4.548;2023-11-21T05:00:52;8.70;99.90
11583;DHT22;34299;50.820;4.548;2023-11-21T05:03:19;8.70;99.90
11583;DHT22;34299;50.820;4.548;2023-11-21T05:05:45;8.60;99.90
11583;DHT22;34299;50.820;4.548;2023-11-21T05:08:13;8.70;99.90
11583;DHT22;34299;50.820;4.548;2023-11-21T05:10:39;8.70;99.90
11583;DHT22;34299;50.820;4.548;2023-11-21T05:13:06;8.80;99.90
11583;DHT22;34299;50.820;4.548;2023-11-21T05:15:36;8.90;99.90
11583;DHT22;34299;50.820;4.548;2023-11-21T05:18:03;8.80;99.90
11583;DHT22;34299;50.820;4.548;2023-11-21T05:20:30;8.80;99.90
11583;DHT22;34299;50.820;4.548;2023-11-21T05:22:56;8.70;99.90
11583;DHT22;34299;50.820;4.548;2023-11-21T05:25:24;8.70;99.90
11583;DHT22;34299;50.820;4.548;2023-11-21T05:27:50;8.90;99.90
11583;DHT22;34299;50.820;4.548;2023-11-21T05:30:18;8.80;99.90
11583;DHT22;34299;50.820;4.548;2023-11-21T05:32:46;8.90;99.90
11583;DHT22;34299;50.820;4.548;2023-11-21T05:35:15;9.10;99.90
11583;DHT22;34299;50.820;4.548;2023-11-21T05:37:41;9.00;99.90
11583;DHT22;34299;50.820;4.548;2023-11-21T05:40:08;8.90;99.90
11583;DHT22;34299;50.820;4.548;2023-11-21T05:42:35;8.80;99.90
11583;DHT22;34299;50.820;4.548;2023-11-21T05:45:03;8.70;99.90
11583;DHT22;34299;50.820;4.548;2023-11-21T05:47:35;8.60;99.90
11583;DHT22;34299;50.820;4.548;2023-11-21T05:50:04;8.70;99.90
11583;DHT22;34299;50.820;4.548;2023-11-21T05:52:31;8.70;99.90
11583;DHT22;34299;50.820;4.548;2023-11-21T05:54:58;8.70;99.90
11583;DHT22;34299;50.820;4.548;2023-11-21T05:57:25;8.60;99.90
11583;DHT22;34299;50.820;4.548;2023-11-21T05:59:52;8.70;99.90
11583;DHT22;34299;50.820;4.548;2023-11-21T06:02:19;8.70;99.90
11583;DHT22;34299;50.820;4.548;2023-11-21T06:04:45;8.60;99.90
11583;DHT22;34299;50.820;4.548;2023-11-21T06:07:13;8.60;99.90
11583;DHT22;34299;50.820;4.548;2023-11-21T06:09:40;8.50;99.90
11583;DHT22;34299;50.820;4.548;2023-11-21T06:12:07;8.50;99.90
11583;DHT22;34299;50.820;4.548;2023-11-21T06:14:34;8.50;99.90
11583;DHT22;34299;50.820;4.548;2023-11-21T06:17:02;8.50;99.90
11583;DHT22;34299;50.820;4.548;2023-11-21T06:19:29;8.50;99.90
11583;DHT22;34299;50.820;4.548;2023-11-21T06:21:56;8.50;99.90
11583;DHT22;34299;50.820;4.548;2023-11-21T06:24:24;8.50;99.90
11583;DHT22;34299;50.820;4.548;2023-11-21T06:26:50;8.50;99.90
11583;DHT22;34299;50.820;4.548;2023-11-21T06:29:17;8.60;99.90
11583;DHT22;34299;50.820;4.548;2023-11-21T06:31:44;8.60;99.90
11583;DHT22;34299;50.820;4.548;2023-11-21T06:34:11;8.60;99.90
11583;DHT22;34299;50.820;4.548;2023-11-21T06:36:39;8.50;99.90
11583;DHT22;34299;50.820;4.548;2023-11-21T06:39:05;8.60;99.90
11583;DHT22;34299;50.820;4.548;2023-11-21T06:41:34;8.60;99.90
11583;DHT22;34299;50.820;4.548;2023-11-21T06:44:04;8.40;99.90
11583;DHT22;34299;50.820;4.548;2023-11-21T06:46:31;8.60;99.90
11583;DHT22;34299;50.820;4.548;2023-11-21T06:48:57;8.60;99.90
11583;DHT22;34299;50.820;4.548;2023-11-21T06:51:24;8.60;99.90
11583;DHT22;34299;50.820;4.548;2023-11-21T06:53:51;8.60;99.90
11583;DHT22;34299;50.820;4.548;2023-11-21T06:56:17;8.60;99.90
11583;DHT22;34299;50.820;4.548;2023-11-21T06:58:46;8.70;99.90
11583;DHT22;34299;50.820;4.548;2023-11-21T07:01:12;8.60;99.90
11583;DHT22;34299;50.820;4.548;2023-11-21T07:03:40;8.60;99.90
11583;DHT22;34299;50.820;4.548;2023-11-21T07:06:07;8.60;99.90
11583;DHT22;34299;50.820;4.548;2023-11-21T07:08:34;8.60;99.90
11583;DHT22;34299;50.820;4.548;2023-11-21T07:11:01;8.60;99.90
11583;DHT22;34299;50.820;4.548;2023-11-21T07:13:28;8.60;99.90
11583;DHT22;34299;50.820;4.548;2023-11-21T07:15:57;8.60;99.90
11583;DHT22;34299;50.820;4.548;2023-11-21T07:18:24;8.60;99.90
11583;DHT22;34299;50.820;4.548;2023-11-21T07:20:51;8.60;99.90
11583;DHT22;34299;50.820;4.548;2023-11-21T07:23:18;8.60;99.90
11583;DHT22;34299;50.820;4.548;2023-11-21T07:25:45;8.70;99.90
11583;DHT22;34299;50.820;4.548;2023-11-21T07:28:12;8.70;99.90
11583;DHT22;34299;50.820;4.548;2023-11-21T07:30:39;8.70;99.90
11583;DHT22;34299;50.820;4.548;2023-11-21T07:33:07;8.60;99.90
11583;DHT22;34299;50.820;4.548;2023-11-21T07:35:34;8.70;99.90
11583;DHT22;34299;50.820;4.548;2023-11-21T07:38:00;8.70;99.90
11583;DHT22;34299;50.820;4.548;2023-11-21T07:40:27;8.70;99.90
11583;DHT22;34299;50.820;4.548;2023-11-21T07:42:54;8.80;99.90
11583;DHT22;34299;50.820;4.548;2023-11-21T07:45:22;8.90;99.90
11583;DHT22;34299;50.820;4.548;2023-11-21T07:47:49;8.90;99.90
11583;DHT22;34299;50.820;4.548;2023-11-21T07:50:17;8.80;99.90
11583;DHT22;34299;50.820;4.548;2023-11-21T07:52:45;8.90;99.90
11583;DHT22;34299;50.820;4.548;2023-11-21T07:55:12;8.90;99.90
11583;DHT22;34299;50.820;4.548;2023-11-21T07:57:39;8.90;99.90
11583;DHT22;34299;50.820;4.548;2023-11-21T08:00:06;8.90;99.90
11583;DHT22;34299;50.820;4.548;2023-11-21T08:02:34;8.90;99.90
11583;DHT22;34299;50.820;4.548;2023-11-21T08:05:01;9.00;99.90
11583;DHT22;34299;50.820;4.548;2023-11-21T08:07:29;9.10;99.90
11583;DHT22;34299;50.820;4.548;2023-11-21T08:09:56;9.20;99.90
11583;DHT22;34299;50.820;4.548;2023-11-21T08:12:24;9.20;99.90
11583;DHT22;34299;50.820;4.548;2023-11-21T08:14:53;9.40;99.90
11583;DHT22;34299;50.820;4.548;2023-11-21T08:17:20;9.60;99.90
11583;DHT22;34299;50.820;4.548;2023-11-21T08:19:46;9.70;99.90
11583;DHT22;34299;50.820;4.548;2023-11-21T08:22:14;9.70;99.90
11583;DHT22;34299;50.820;4.548;2023-11-21T08:24:43;9.90;99.90
11583;DHT22;34299;50.820;4.548;2023-11-21T08:27:09;9.80;99.90
11583;DHT22;34299;50.820;4.548;2023-11-21T08:29:36;9.70;99.90
11583;DHT22;34299;50.820;4.548;2023-11-21T08:32:03;9.80;99.90
11583;DHT22;34299;50.820;4.548;2023-11-21T08:34:30;9.80;99.90
11583;DHT22;34299;50.820;4.548;2023-11-21T08:36:57;10.10;99.90
11583;DHT22;34299;50.820;4.548;2023-11-21T08:39:24;9.80;99.90
11583;DHT22;34299;50.820;4.548;2023-11-21T08:41:53;9.80;99.90
11583;DHT22;34299;50.820;4.548;2023-11-21T08:44:20;9.90;99.90
11583;DHT22;34299;50.820;4.548;2023-11-21T08:46:48;9.90;99.90
11583;DHT22;34299;50.820;4.548;2023-11-21T08:49:15;10.00;99.90
11583;DHT22;34299;50.820;4.548;2023-11-21T08:51:43;10.10;99.90
11583;DHT22;34299;50.820;4.548;2023-11-21T08:54:10;10.10;99.90
11583;DHT22;34299;50.820;4.548;2023-11-21T08:56:37;10.20;99.90
11583;DHT22;34299;50.820;4.548;2023-11-21T08:59:05;10.20;99.90
11583;DHT22;34299;50.820;4.548;2023-11-21T09:01:33;10.10;99.90
11583;DHT22;34299;50.820;4.548;2023-11-21T09:04:00;10.40;99.90
11583;DHT22;34299;50.820;4.548;2023-11-21T09:06:27;10.10;99.90
11583;DHT22;34299;50.820;4.548;2023-11-21T09:08:54;10.20;99.90
11583;DHT22;34299;50.820;4.548;2023-11-21T09:11:21;10.40;99.90
11583;DHT22;34299;50.820;4.548;2023-11-21T09:13:49;10.40;99.90
11583;DHT22;34299;50.820;4.548;2023-11-21T09:16:17;10.20;99.90
11583;DHT22;34299;50.820;4.548;2023-11-21T09:18:44;10.30;99.90
11583;DHT22;34299;50.820;4.548;2023-11-21T09:21:11;10.30;99.90
11583;DHT22;34299;50.820;4.548;2023-11-21T09:23:38;10.20;99.90
11583;DHT22;34299;50.820;4.548;2023-11-21T09:26:05;10.30;99.90
11583;DHT22;34299;50.820;4.548;2023-11-21T09:28:31;10.30;99.90
11583;DHT22;34299;50.820;4.548;2023-11-21T09:30:58;10.40;99.90
11583;DHT22;34299;50.820;4.548;2023-11-21T09:33:27;10.10;99.90
11583;DHT22;34299;50.820;4.548;2023-11-21T09:35:55;10.10;99.90
11583;DHT22;34299;50.820;4.548;2023-11-21T09:38:22;10.10;99.90
11583;DHT22;34299;50.820;4.548;2023-11-21T09:40:49;10.20;99.90
11583;DHT22;34299;50.820;4.548;2023-11-21T09:43:18;10.20;99.90
11583;DHT22;34299;50.820;4.548;2023-11-21T09:45:45;10.30;99.90
11583;DHT22;34299;50.820;4.548;2023-11-21T09:48:13;10.40;99.90
11583;DHT22;34299;50.820;4.548;2023-11-21T09:50:43;10.10;99.90
11583;DHT22;34299;50.820;4.548;2023-11-21T09:53:12;10.50;99.90
11583;DHT22;34299;50.820;4.548;2023-11-21T09:55:41;10.40;99.90
11583;DHT22;34299;50.820;4.548;2023-11-21T09:58:09;10.50;99.90
11583;DHT22;34299;50.820;4.548;2023-11-21T10:00:38;10.60;99.90
11583;DHT22;34299;50.820;4.548;2023-11-21T10:03:06;10.50;99.90
11583;DHT22;34299;50.820;4.548;2023-11-21T10:05:33;10.60;99.90
11583;DHT22;34299;50.820;4.548;2023-11-21T10:08:01;10.60;99.90
11583;DHT22;34299;50.820;4.548;2023-11-21T10:10:28;10.60;99.90
11583;DHT22;34299;50.820;4.548;2023-11-21T10:12:56;10.50;99.90
11583;DHT22;34299;50.820;4.548;2023-11-21T10:15:24;10.50;99.90
11583;DHT22;34299;50.820;4.548;2023-11-21T10:17:52;10.50;99.90
11583;DHT22;34299;50.820;4.548;2023-11-21T10:20:19;10.30;99.90
11583;DHT22;34299;50.820;4.548;2023-11-21T10:22:46;10.50;99.90
11583;DHT22;34299;50.820;4.548;2023-11-21T10:25:14;10.60;99.90
11583;DHT22;34299;50.820;4.548;2023-11-21T10:27:42;10.60;99.90
11583;DHT22;34299;50.820;4.548;2023-11-21T10:30:09;10.60;99.90
11583;DHT22;34299;50.820;4.548;2023-11-21T10:32:37;10.60;99.90
11583;DHT22;34299;50.820;4.548;2023-11-21T10:35:06;10.70;99.90
11583;DHT22;34299;50.820;4.548;2023-11-21T10:37:35;10.70;99.90
11583;DHT22;34299;50.820;4.548;2023-11-21T10:40:05;10.90;99.90
11583;DHT22;34299;50.820;4.548;2023-11-21T10:42:33;10.90;99.90
11583;DHT22;34299;50.820;4.548;2023-11-21T10:45:00;10.90;99.90
11583;DHT22;34299;50.820;4.548;2023-11-21T10:47:28;10.90;99.90
11583;DHT22;34299;50.820;4.548;2023-11-21T10:49:55;11.00;99.90
11583;DHT22;34299;50.820;4.548;2023-11-21T10:52:22;11.00;99.90
11583;DHT22;34299;50.820;4.548;2023-11-21T10:54:53;11.00;99.90
11583;DHT22;34299;50.820;4.548;2023-11-21T10:57:19;11.20;99.90
11583;DHT22;34299;50.820;4.548;2023-11-21T10:59:50;11.10;99.90
11583;DHT22;34299;50.820;4.548;2023-11-21T11:02:21;11.10;99.90
11583;DHT22;34299;50.820;4.548;2023-11-21T11:04:48;11.20;99.90
11583;DHT22;34299;50.820;4.548;2023-11-21T11:07:15;11.10;99.90
11583;DHT22;34299;50.820;4.548;2023-11-21T11:09:42;11.10;99.90
11583;DHT22;34299;50.820;4.548;2023-11-21T11:12:10;11.00;99.90
11583;DHT22;34299;50.820;4.548;2023-11-21T11:14:39;11.00;99.90
11583;DHT22;34299;50.820;4.548;2023-11-21T11:17:10;11.00;99.90
11583;DHT22;34299;50.820;4.548;2023-11-21T11:19:36;11.00;99.90
11583;DHT22;34299;50.820;4.548;2023-11-21T11:22:07;11.10;99.90
11583;DHT22;34299;50.820;4.548;2023-11-21T11:27:25;11.10;99.90
11583;DHT22;34299;50.820;4.548;2023-11-21T11:29:59;11.00;99.90
11583;DHT22;34299;50.820;4.548;2023-11-21T11:32:36;11.00;99.90
11583;DHT22;34299;50.820;4.548;2023-11-21T11:35:07;11.00;99.90
11583;DHT22;34299;50.820;4.548;2023-11-21T11:37:36;11.00;99.90
11583;DHT22;34299;50.820;4.548;2023-11-21T11:40:05;11.20;99.90
11583;DHT22;34299;50.820;4.548;2023-11-21T11:42:32;11.10;99.90
11583;DHT22;34299;50.820;4.548;2023-11-21T11:44:59;11.20;99.90
11583;DHT22;34299;50.820;4.548;2023-11-21T11:47:26;11.20;99.90
11583;DHT22;34299;50.820;4.548;2023-11-21T11:50:00;11.40;99.90
11583;DHT22;34299;50.820;4.548;2023-11-21T11:52:34;11.40;99.90
11583;DHT22;34299;50.820;4.548;2023-11-21T11:55:01;11.20;99.90
11583;DHT22;34299;50.820;4.548;2023-11-21T11:57:29;11.40;99.90
11583;DHT22;34299;50.820;4.548;2023-11-21T12:00:12;11.40;99.90
11583;DHT22;34299;50.820;4.548;2023-11-21T12:02:42;11.10;99.90
11583;DHT22;34299;50.820;4.548;2023-11-21T12:05:12;11.60;99.90
11583;DHT22;34299;50.820;4.548;2023-11-21T12:07:43;11.50;99.90
11583;DHT22;34299;50.820;4.548;2023-11-21T12:10:11;11.50;99.90
11583;DHT22;34299;50.820;4.548;2023-11-21T12:12:42;11.30;99.90
11583;DHT22;34299;50.820;4.548;2023-11-21T12:15:10;11.40;99.90
11583;DHT22;34299;50.820;4.548;2023-11-21T12:17:38;11.40;99.90
11583;DHT22;34299;50.820;4.548;2023-11-21T12:20:05;11.40;99.90
11583;DHT22;34299;50.820;4.548;2023-11-21T12:22:42;11.50;99.90
11583;DHT22;34299;50.820;4.548;2023-11-21T12:25:09;11.50;99.90
11583;DHT22;34299;50.820;4.548;2023-11-21T12:27:42;11.50;99.90
11583;DHT22;34299;50.820;4.548;2023-11-21T12:30:09;11.50;99.90
11583;DHT22;34299;50.820;4.548;2023-11-21T12:32:39;11.40;99.90
11583;DHT22;34299;50.820;4.548;2023-11-21T12:35:06;11.30;99.90
11583;DHT22;34299;50.820;4.548;2023-11-21T12:37:33;11.30;99.90
11583;DHT22;34299;50.820;4.548;2023-11-21T12:40:01;11.20;99.90
11583;DHT22;34299;50.820;4.548;2023-11-21T12:42:28;11.20;99.90
11583;DHT22;34299;50.820;4.548;2023-11-21T12:47:45;11.10;99.90
11583;DHT22;34299;50.820;4.548;2023-11-21T12:50:12;11.20;99.90
11583;DHT22;34299;50.820;4.548;2023-11-21T12:52:40;11.30;99.90
11583;DHT22;34299;50.820;4.548;2023-11-21T12:55:10;11.30;99.90
11583;DHT22;34299;50.820;4.548;2023-11-21T12:57:41;11.40;99.90
11583;DHT22;34299;50.820;4.548;2023-11-21T13:00:08;11.60;99.90
11583;DHT22;34299;50.820;4.548;2023-11-21T13:02:40;11.90;99.90
11583;DHT22;34299;50.820;4.548;2023-11-21T13:05:08;12.20;99.90
11583;DHT22;34299;50.820;4.548;2023-11-21T13:07:43;12.40;99.90
11583;DHT22;34299;50.820;4.548;2023-11-21T13:10:13;12.70;99.90
11583;DHT22;34299;50.820;4.548;2023-11-21T13:12:42;12.50;99.90
11583;DHT22;34299;50.820;4.548;2023-11-21T13:15:09;12.50;99.90
11583;DHT22;34299;50.820;4.548;2023-11-21T13:17:36;12.30;99.90
11583;DHT22;34299;50.820;4.548;2023-11-21T13:20:04;12.10;99.90
11583;DHT22;34299;50.820;4.548;2023-11-21T13:22:34;11.80;99.90
11583;DHT22;34299;50.820;4.548;2023-11-21T13:25:01;11.50;99.90
11583;DHT22;34299;50.820;4.548;2023-11-21T13:27:34;11.40;99.90
11583;DHT22;34299;50.820;4.548;2023-11-21T13:30:02;11.40;99.90
11583;DHT22;34299;50.820;4.548;2023-11-21T13:32:30;11.20;99.90
11583;DHT22;34299;50.820;4.548;2023-11-21T13:34:57;11.10;99.90
11583;DHT22;34299;50.820;4.548;2023-11-21T13:37:25;11.00;99.90
11583;DHT22;34299;50.820;4.548;2023-11-21T13:39:53;11.00;99.90
11583;DHT22;34299;50.820;4.548;2023-11-21T13:42:21;11.10;99.90
11583;DHT22;34299;50.820;4.548;2023-11-21T13:44:57;11.00;99.90
11583;DHT22;34299;50.820;4.548;2023-11-21T13:47:23;11.10;99.90
11583;DHT22;34299;50.820;4.548;2023-11-21T13:49:54;11.20;99.90
11583;DHT22;34299;50.820;4.548;2023-11-21T13:52:21;11.30;99.90
11583;DHT22;34299;50.820;4.548;2023-11-21T13:54:51;11.30;99.90
11583;DHT22;34299;50.820;4.548;2023-11-21T13:57:18;11.40;99.90
11583;DHT22;34299;50.820;4.548;2023-11-21T13:59:46;11.40;99.90
11583;DHT22;34299;50.820;4.548;2023-11-21T14:02:14;11.50;99.90
11583;DHT22;34299;50.820;4.548;2023-11-21T14:04:43;11.30;99.90
11583;DHT22;34299;50.820;4.548;2023-11-21T14:07:23;11.10;99.90
11583;DHT22;34299;50.820;4.548;2023-11-21T14:09:58;11.10;99.90
11583;DHT22;34299;50.820;4.548;2023-11-21T14:12:25;10.90;99.90
11583;DHT22;34299;50.820;4.548;2023-11-21T14:14:53;10.90;99.90
11583;DHT22;34299;50.820;4.548;2023-11-21T14:17:21;11.00;99.90
11583;DHT22;34299;50.820;4.548;2023-11-21T14:19:49;10.90;99.90
11583;DHT22;34299;50.820;4.548;2023-11-21T14:22:16;10.90;99.90
11583;DHT22;34299;50.820;4.548;2023-11-21T14:24:44;10.90;99.90
11583;DHT22;34299;50.820;4.548;2023-11-21T14:27:14;10.90;99.90
11583;DHT22;34299;50.820;4.548;2023-11-21T14:29:41;11.10;99.90
11583;DHT22;34299;50.820;4.548;2023-11-21T14:32:10;11.10;99.90
11583;DHT22;34299;50.820;4.548;2023-11-21T14:34:38;11.10;99.90
11583;DHT22;34299;50.820;4.548;2023-11-21T14:37:06;11.20;99.90
11583;DHT22;34299;50.820;4.548;2023-11-21T14:39:32;11.10;99.90
11583;DHT22;34299;50.820;4.548;2023-11-21T14:42:05;11.20;99.90
11583;DHT22;34299;50.820;4.548;2023-11-21T14:44:33;11.10;99.90
11583;DHT22;34299;50.820;4.548;2023-11-21T14:47:04;11.10;99.90
11583;DHT22;34299;50.820;4.548;2023-11-21T14:49:35;11.20;99.90
11583;DHT22;34299;50.820;4.548;2023-11-21T14:52:17;11.10;99.90
11583;DHT22;34299;50.820;4.548;2023-11-21T14:54:57;11.20;99.90
11583;DHT22;34299;50.820;4.548;2023-11-21T14:57:45;11.00;99.90
11583;DHT22;34299;50.820;4.548;2023-11-21T15:00:15;10.80;99.90
11583;DHT22;34299;50.820;4.548;2023-11-21T15:03:03;10.80;99.90
11583;DHT22;34299;50.820;4.548;2023-11-21T15:05:29;10.70;99.90
11583;DHT22;34299;50.820;4.548;2023-11-21T15:07:57;10.70;99.90
11583;DHT22;34299;50.820;4.548;2023-11-21T15:10:36;10.60;99.90
11583;DHT22;34299;50.820;4.548;2023-11-21T15:13:11;10.50;99.90
11583;DHT22;34299;50.820;4.548;2023-11-21T15:15:38;10.50;99.90
11583;DHT22;34299;50.820;4.548;2023-11-21T15:18:05;10.60;99.90
11583;DHT22;34299;50.820;4.548;2023-11-21T15:20:32;10.30;99.90
11583;DHT22;34299;50.820;4.548;2023-11-21T15:23:00;10.30;99.90
11583;DHT22;34299;50.820;4.548;2023-11-21T15:25:28;10.30;99.90
11583;DHT22;34299;50.820;4.548;2023-11-21T15:27:54;10.30;99.90
11583;DHT22;34299;50.820;4.548;2023-11-21T15:30:21;10.30;99.90
11583;DHT22;34299;50.820;4.548;2023-11-21T15:32:50;10.20;99.90
11583;DHT22;34299;50.820;4.548;2023-11-21T15:35:17;10.00;99.90
11583;DHT22;34299;50.820;4.548;2023-11-21T15:37:44;10.10;99.90
11583;DHT22;34299;50.820;4.548;2023-11-21T15:40:12;10.20;99.90
11583;DHT22;34299;50.820;4.548;2023-11-21T15:42:41;9.90;99.90
11583;DHT22;34299;50.820;4.548;2023-11-21T15:45:09;10.10;99.90
11583;DHT22;34299;50.820;4.548;2023-11-21T15:47:36;10.10;99.90
11583;DHT22;34299;50.820;4.548;2023-11-21T15:50:03;10.10;99.90